createdAt,value
2018-09-18T00:00:24.812Z,89.25
2018-09-18T00:01:34.988Z,89.64
2018-09-18T00:02:45.067Z,89.54
2018-09-18T00:03:54.881Z,89.44
2018-09-18T00:05:04.945Z,89.54
2018-09-18T00:06:14.749Z,89.44
2018-09-18T00:07:24.986Z,89.44
2018-09-18T00:08:34.803Z,89.54
2018-09-18T00:09:44.898Z,89.54
2018-09-18T00:10:55.021Z,89.06
2018-09-18T00:12:04.831Z,89.25
2018-09-18T00:13:14.901Z,89.64
2018-09-18T00:14:24.978Z,89.21
2018-09-18T00:15:35.062Z,89.54
2018-09-18T00:16:45.145Z,89.21
2018-09-18T00:17:55.228Z,89.5
2018-09-18T00:19:05.318Z,89.5
2018-09-18T00:20:15.118Z,89.3
2018-09-18T00:21:25.207Z,89.3
2018-09-18T00:22:35.285Z,89.21
2018-09-18T00:23:45.467Z,89.21
2018-09-18T00:24:55.632Z,89.3
2018-09-18T00:26:07.507Z,89.21
2018-09-18T00:27:17.303Z,89.5
2018-09-18T00:28:27.441Z,89.3
2018-09-18T00:29:37.254Z,89.21
2018-09-18T00:30:47.347Z,89.21
2018-09-18T00:31:57.415Z,89.21
2018-09-18T00:33:07.493Z,89.11
2018-09-18T00:34:17.298Z,89.5
2018-09-18T00:35:27.361Z,89.5
2018-09-18T00:36:37.492Z,89.5
2018-09-18T00:37:47.304Z,89.3
2018-09-18T00:38:57.427Z,89.21
2018-09-18T00:40:07.519Z,89.11
2018-09-18T00:41:17.585Z,89.21
2018-09-18T00:42:27.449Z,89.3
2018-09-18T00:43:37.262Z,89.59
2018-09-18T00:44:47.324Z,89.59
2018-09-18T00:45:57.405Z,89.21
2018-09-18T00:47:08.267Z,89.11
2018-09-18T00:48:18.074Z,89.3
2018-09-18T00:49:28.170Z,89.5
2018-09-18T00:50:38.225Z,89.4
2018-09-18T00:51:48.307Z,89.21
2018-09-18T00:52:58.399Z,89.4
2018-09-18T00:54:08.547Z,89.21
2018-09-18T00:55:18.626Z,89.21
2018-09-18T00:56:28.747Z,89.21
2018-09-18T00:57:38.818Z,89.21
2018-09-18T00:58:49.003Z,89.16
2018-09-18T00:59:59.126Z,89.26
2018-09-18T01:01:10.673Z,89.64
2018-09-18T01:02:20.485Z,89.16
2018-09-18T01:03:30.309Z,89.64
2018-09-18T01:04:40.117Z,89.54
2018-09-18T01:05:50.239Z,89.26
2018-09-18T01:07:00.320Z,89.64
2018-09-18T01:08:10.396Z,89.54
2018-09-18T01:09:20.201Z,89.16
2018-09-18T01:10:30.270Z,89.64
2018-09-18T01:11:40.358Z,89.64
2018-09-18T01:12:50.176Z,89.64
2018-09-18T01:14:01.203Z,89.54
2018-09-18T01:15:11.024Z,89.54
2018-09-18T01:16:21.126Z,89.45
2018-09-18T01:17:31.207Z,89.64
2018-09-18T01:18:41.288Z,89.54
2018-09-18T01:19:51.357Z,89.54
2018-09-18T01:21:01.432Z,89.07
2018-09-18T01:22:10.979Z,89.26
2018-09-18T01:23:20.815Z,89.16
2018-09-18T01:24:30.629Z,89.16
2018-09-18T01:25:40.456Z,88.97
2018-09-18T01:26:50.513Z,88.97
2018-09-18T01:28:00.424Z,89.54
2018-09-18T01:29:10.586Z,89.45
2018-09-18T01:30:20.781Z,88.97
2018-09-18T01:31:30.693Z,89.26
2018-09-18T01:32:40.774Z,88.97
2018-09-18T01:33:50.842Z,89.07
2018-09-18T01:35:00.709Z,89.07
2018-09-18T01:36:10.798Z,89.07
2018-09-18T01:37:20.854Z,89.07
2018-09-18T01:38:30.942Z,89.45
2018-09-18T01:39:41.019Z,89.07
2018-09-18T01:40:50.840Z,89.07
2018-09-18T01:42:01.375Z,89.16
2018-09-18T01:43:11.470Z,89.26
2018-09-18T01:44:21.541Z,89.45
2018-09-18T01:45:31.602Z,89.36
2018-09-18T01:46:41.682Z,89.26
2018-09-18T01:47:51.774Z,89.45
2018-09-18T01:49:03.041Z,89.4
2018-09-18T01:50:13.135Z,89.45
2018-09-18T01:51:22.688Z,89.45
2018-09-18T01:52:32.824Z,89.54
2018-09-18T01:53:42.886Z,89.36
2018-09-18T01:54:52.956Z,89.36
2018-09-18T01:56:03.783Z,89.31
2018-09-18T01:57:13.871Z,89.45
2018-09-18T01:58:23.834Z,89.16
2018-09-18T01:59:33.631Z,89.54
2018-09-18T02:00:43.173Z,89.12
2018-09-18T02:01:53.262Z,89.16
2018-09-18T02:03:03.350Z,89.22
2018-09-18T02:04:13.422Z,89.12
2018-09-18T02:05:23.507Z,89.12
2018-09-18T02:06:33.569Z,89.12
2018-09-18T02:07:43.643Z,89.22
2018-09-18T02:08:53.765Z,89.22
2018-09-18T02:10:05.935Z,89.02
2018-09-18T02:11:15.752Z,89.22
2018-09-18T02:12:25.558Z,89.4
2018-09-18T02:13:35.102Z,89.02
2018-09-18T02:14:45.185Z,89.4
2018-09-18T02:15:55.255Z,89.4
2018-09-18T02:17:05.064Z,89.12
2018-09-18T02:18:15.554Z,89.12
2018-09-18T02:19:25.673Z,89.22
2018-09-18T02:20:35.741Z,89.02
2018-09-18T02:21:45.602Z,89.4
2018-09-18T02:22:55.141Z,89.12
2018-09-18T02:24:05.311Z,89.12
2018-09-18T02:25:15.397Z,89.12
2018-09-18T02:26:25.462Z,89.12
2018-09-18T02:27:35.263Z,89.12
2018-09-18T02:28:45.048Z,89.12
2018-09-18T02:29:55.141Z,89.31
2018-09-18T02:31:05.224Z,89.4
2018-09-18T02:32:15.043Z,89.31
2018-09-18T02:33:25.166Z,89.4
2018-09-18T02:34:35.223Z,89.12
2018-09-18T02:35:45.313Z,89.12
2018-09-18T02:36:55.410Z,89.31
2018-09-18T02:38:08.259Z,89.02
2018-09-18T02:39:18.183Z,89.22
2018-09-18T02:40:28.106Z,89.4
2018-09-18T02:41:38.207Z,89.5
2018-09-18T02:42:48.280Z,89.31
2018-09-18T02:43:58.339Z,89.4
2018-09-18T02:45:09.727Z,89.22
2018-09-18T02:46:19.810Z,89.5
2018-09-18T02:47:29.873Z,89.31
2018-09-18T02:48:39.933Z,89.31
2018-09-18T02:49:50.006Z,89.31
2018-09-18T02:50:59.876Z,89.4
2018-09-18T02:52:09.954Z,89.31
2018-09-18T02:53:20.048Z,88.93
2018-09-18T02:54:29.895Z,89.12
2018-09-18T02:55:39.984Z,89.12
2018-09-18T02:56:50.054Z,89.22
2018-09-18T02:57:59.345Z,89.12
2018-09-18T02:59:09.432Z,89.12
2018-09-18T03:00:19.280Z,89.4
2018-09-18T03:01:29.098Z,89.4
2018-09-18T03:02:39.213Z,89.07
2018-09-18T03:35:06.956Z,83.97
2018-09-18T03:36:16.762Z,83.63
2018-09-18T03:37:26.840Z,84.92
2018-09-18T03:38:36.899Z,85.5
2018-09-18T03:39:46.716Z,86.46
2018-09-18T03:40:56.764Z,86.46
2018-09-18T03:42:06.562Z,87.23
2018-09-18T03:43:16.372Z,87.8
2018-09-18T03:44:26.446Z,88.18
2018-09-18T03:45:36.520Z,88.23
2018-09-18T03:46:46.633Z,88.61
2018-09-18T03:47:56.722Z,88.7
2018-09-18T03:49:06.794Z,88.9
2018-09-18T03:50:16.601Z,88.8
2018-09-18T03:51:26.401Z,88.94
2018-09-18T03:52:36.530Z,89.23
2018-09-18T03:53:46.596Z,89.51
2018-09-18T03:54:56.143Z,89.42
2018-09-18T03:56:06.239Z,89.51
2018-09-18T03:57:16.315Z,89.56
2018-09-18T03:58:26.163Z,89.37
2018-09-18T03:59:36.300Z,89.47
2018-09-18T04:00:46.356Z,89.27
2018-09-18T04:01:56.186Z,89.56
2018-09-18T04:03:06.254Z,89.47
2018-09-18T04:04:16.130Z,89.37
2018-09-18T04:05:26.200Z,89.47
2018-09-18T04:06:35.747Z,89.22
2018-09-18T04:07:45.821Z,89.03
2018-09-18T04:08:55.646Z,89.03
2018-09-18T04:10:08.426Z,89.03
2018-09-18T04:11:18.505Z,89.41
2018-09-18T04:12:28.567Z,88.93
2018-09-18T04:13:38.654Z,89.03
2018-09-18T04:14:48.733Z,89.41
2018-09-18T04:15:58.682Z,89.12
2018-09-18T04:17:08.994Z,89.03
2018-09-18T04:18:18.986Z,89.12
2018-09-18T04:19:28.799Z,88.93
2018-09-18T04:20:38.985Z,89.03
2018-09-18T04:21:49.120Z,89.03
2018-09-18T04:22:58.933Z,89.41
2018-09-18T04:24:08.736Z,89.32
2018-09-18T04:25:18.798Z,89.32
2018-09-18T04:26:28.877Z,89.12
2018-09-18T04:27:38.862Z,89.12
2018-09-18T04:28:48.924Z,89.17
2018-09-18T04:29:58.755Z,89.12
2018-09-18T04:31:08.829Z,89.03
2018-09-18T04:32:18.913Z,89.17
2018-09-18T04:33:28.976Z,89.17
2018-09-18T04:34:39.118Z,88.98
2018-09-18T04:35:49.218Z,89.07
2018-09-18T04:36:59.028Z,89.07
2018-09-18T04:38:10.066Z,89.17
2018-09-18T04:39:19.989Z,89.07
2018-09-18T04:40:30.041Z,89.17
2018-09-18T04:41:40.111Z,89.17
2018-09-18T04:42:49.921Z,89.17
2018-09-18T04:43:59.841Z,89.17
2018-09-18T04:45:09.919Z,89.36
2018-09-18T04:46:20.010Z,89.07
2018-09-18T04:47:30.077Z,89.17
2018-09-18T04:48:39.907Z,89.17
2018-09-18T04:49:49.977Z,88.88
2018-09-18T04:51:01.555Z,88.79
2018-09-18T04:52:11.628Z,88.88
2018-09-18T04:53:21.707Z,89.02
2018-09-18T04:54:31.783Z,88.83
2018-09-18T04:55:41.839Z,89.02
2018-09-18T04:56:51.939Z,88.73
2018-09-18T04:58:02.017Z,88.54
2018-09-18T04:59:12.109Z,88.93
2018-09-18T05:00:22.180Z,88.73
2018-09-18T05:01:32.257Z,88.73
2018-09-18T05:02:42.384Z,88.64
2018-09-18T05:03:52.486Z,88.64
2018-09-18T05:05:03.209Z,88.64
2018-09-18T05:06:13.019Z,88.25
2018-09-18T05:07:22.851Z,88.45
2018-09-18T05:08:32.668Z,88.59
2018-09-18T05:09:42.761Z,88.59
2018-09-18T05:10:52.850Z,88.68
2018-09-18T05:12:03.194Z,88.59
2018-09-18T05:13:13.270Z,88.68
2018-09-18T05:14:23.344Z,88.59
2018-09-18T05:15:33.163Z,88.78
2018-09-18T05:16:43.237Z,88.1
2018-09-18T05:17:53.046Z,88.3
2018-09-18T05:19:03.867Z,88.44
2018-09-18T05:20:13.998Z,88.1
2018-09-18T05:21:24.101Z,88.15
2018-09-18T05:22:34.176Z,88.15
2018-09-18T05:23:43.716Z,88.15
2018-09-18T05:24:53.521Z,88.34
2018-09-18T05:26:03.605Z,88.24
2018-09-18T05:27:13.405Z,88.24
2018-09-18T05:28:23.499Z,88.24
2018-09-18T05:29:33.591Z,88.24
2018-09-18T05:30:43.663Z,87.96
2018-09-18T05:31:53.752Z,88.34
2018-09-18T05:33:03.842Z,88.57
2018-09-18T05:34:13.926Z,87.81
2018-09-18T05:35:24.043Z,88
2018-09-18T05:36:33.865Z,88.1
2018-09-18T05:37:44.937Z,87.71
2018-09-18T05:38:55.013Z,87.81
2018-09-18T05:40:06.900Z,87.81
2018-09-18T05:41:16.987Z,87.9
2018-09-18T05:42:27.060Z,87.9
2018-09-18T05:43:37.225Z,87.76
2018-09-18T05:44:47.291Z,87.76
2018-09-18T05:45:57.372Z,88.43
2018-09-18T05:47:07.448Z,88.53
2018-09-18T05:48:17.732Z,87.76
2018-09-18T05:49:27.214Z,87.76
2018-09-18T05:50:37.298Z,88.53
2018-09-18T05:51:47.428Z,88.43
2018-09-18T05:52:57.554Z,87.66
2018-09-18T05:54:07.377Z,87.76
2018-09-18T05:55:17.529Z,87.66
2018-09-18T05:56:27.625Z,88.09
2018-09-18T05:57:37.701Z,87.8
2018-09-18T05:58:47.783Z,87.6
2018-09-18T05:59:57.607Z,87.51
2018-09-18T06:01:07.529Z,87.7
2018-09-18T06:02:17.414Z,87.7
2018-09-18T06:03:27.866Z,88.28
2018-09-18T06:04:37.944Z,88.28
2018-09-18T06:05:47.801Z,87.55
2018-09-18T06:06:57.956Z,87.94
2018-09-18T06:08:08.048Z,88.23
2018-09-18T06:09:18.130Z,88.32
2018-09-18T06:10:28.258Z,88.32
2018-09-18T06:11:38.327Z,87.74
2018-09-18T06:12:48.135Z,87.98
2018-09-18T06:13:58.231Z,88.32
2018-09-18T06:15:08.296Z,87.7
2018-09-18T06:16:18.388Z,87.5
2018-09-18T06:17:28.473Z,87.6
2018-09-18T06:18:38.496Z,87.79
2018-09-18T06:19:48.988Z,87.79
2018-09-18T06:20:59.086Z,87.79
2018-09-18T06:22:09.161Z,88.17
2018-09-18T06:23:18.725Z,88.08
2018-09-18T06:24:28.854Z,87.93
2018-09-18T06:25:38.961Z,88.08
2018-09-18T06:26:48.787Z,88.12
2018-09-18T06:27:58.880Z,88.12
2018-09-18T06:29:08.702Z,87.83
2018-09-18T06:30:18.777Z,87.54
2018-09-18T06:31:28.634Z,87.45
2018-09-18T06:32:38.734Z,87.45
2018-09-18T06:33:48.551Z,87.74
2018-09-18T06:34:58.680Z,87.88
2018-09-18T06:36:09.351Z,87.88
2018-09-18T06:37:19.431Z,87.88
2018-09-18T06:38:29.528Z,87.59
2018-09-18T06:39:39.614Z,87.59
2018-09-18T06:40:49.687Z,87.68
2018-09-18T06:41:59.763Z,87.59
2018-09-18T06:43:09.830Z,87.59
2018-09-18T06:44:19.922Z,87.88
2018-09-18T06:45:30.035Z,87.59
2018-09-18T06:46:39.843Z,87.59
2018-09-18T06:47:49.709Z,87.63
2018-09-18T06:48:59.955Z,87.73
2018-09-18T06:50:10.031Z,87.63
2018-09-18T06:51:19.842Z,87.63
2018-09-18T06:52:29.907Z,87.63
2018-09-18T06:53:40.041Z,87.82
2018-09-18T06:54:50.124Z,87.63
2018-09-18T06:56:00.395Z,87.82
2018-09-18T06:57:10.489Z,87.73
2018-09-18T06:58:20.691Z,87.63
2018-09-18T06:59:30.569Z,87.87
2018-09-18T07:00:40.391Z,87.67
2018-09-18T07:01:50.211Z,87.87
2018-09-18T07:03:00.324Z,87.67
2018-09-18T07:04:10.392Z,87.67
2018-09-18T07:05:20.595Z,87.67
2018-09-18T07:06:30.812Z,87.19
2018-09-18T07:07:40.884Z,87.91
2018-09-18T07:08:50.954Z,87.62
2018-09-18T07:10:01.545Z,87.71
2018-09-18T07:11:11.683Z,87.71
2018-09-18T07:12:21.768Z,87.62
2018-09-18T07:13:31.857Z,87.33
2018-09-18T07:14:41.952Z,87.33
2018-09-18T07:15:52.053Z,87.37
2018-09-18T07:17:02.290Z,88.34
2018-09-18T07:18:12.644Z,87.18
2018-09-18T07:19:22.829Z,87.37
2018-09-18T07:20:32.653Z,88.24
2018-09-18T07:21:42.734Z,87.27
2018-09-18T07:22:52.823Z,88.15
2018-09-18T07:24:04.191Z,88.19
2018-09-18T07:25:14.007Z,87.81
2018-09-18T07:26:24.103Z,87.81
2018-09-18T07:27:34.192Z,87.32
2018-09-18T07:28:44.286Z,87.23
2018-09-18T07:29:54.378Z,88.13
2018-09-18T07:31:04.466Z,87.85
2018-09-18T07:32:14.309Z,87.17
2018-09-18T07:33:24.115Z,87.65
2018-09-18T07:34:34.258Z,87.55
2018-09-18T07:35:44.091Z,87.46
2018-09-18T07:36:54.177Z,87.65
2018-09-18T07:38:04.266Z,87.55
2018-09-18T07:39:14.366Z,87.46
2018-09-18T07:40:24.192Z,87.65
2018-09-18T07:41:34.278Z,87.79
2018-09-18T07:42:44.378Z,87.5
2018-09-18T07:43:54.437Z,87.89
2018-09-18T07:45:04.530Z,87.79
2018-09-18T07:46:14.664Z,87.5
2018-09-18T07:47:24.734Z,87.84
2018-09-18T07:48:34.809Z,87.64
2018-09-18T07:49:44.632Z,87.74
2018-09-18T07:50:54.857Z,87.45
2018-09-18T07:52:05.057Z,87.64
2018-09-18T07:53:14.920Z,87.64
2018-09-18T07:54:24.735Z,87.64
2018-09-18T07:55:34.826Z,87.64
2018-09-18T07:56:44.918Z,87.59
2018-09-18T07:57:55.003Z,87.88
2018-09-18T07:59:05.080Z,87.68
2018-09-18T08:00:15.292Z,87.49
2018-09-18T08:01:25.375Z,87.1
2018-09-18T08:02:35.456Z,87.49
2018-09-18T08:03:45.575Z,87.1
2018-09-18T08:04:55.659Z,87.05
2018-09-18T08:06:06.667Z,87.63
2018-09-18T08:07:16.483Z,87.54
2018-09-18T08:08:26.574Z,87.54
2018-09-18T08:09:36.806Z,87.73
2018-09-18T08:10:47.072Z,87.44
2018-09-18T08:11:57.729Z,87.54
2018-09-18T08:13:07.827Z,87.48
2018-09-18T08:14:17.917Z,87.48
2018-09-18T08:15:27.730Z,87.77
2018-09-18T08:16:37.824Z,87.48
2018-09-18T08:17:48.038Z,87.43
2018-09-18T08:18:58.228Z,87.72
2018-09-18T08:20:08.757Z,87.72
2018-09-18T08:21:18.594Z,87.23
2018-09-18T08:22:28.720Z,87.72
2018-09-18T08:23:38.885Z,87.13
2018-09-18T08:24:48.989Z,87.13
2018-09-18T08:25:58.829Z,87.18
2018-09-18T08:27:08.920Z,87.43
2018-09-18T08:28:18.735Z,87.37
2018-09-18T08:29:28.961Z,87.37
2018-09-18T08:30:39.048Z,87.27
2018-09-18T08:31:49.131Z,87.12
2018-09-18T08:32:59.448Z,87.32
2018-09-18T08:34:09.911Z,86.93
2018-09-18T08:35:19.969Z,87.12
2018-09-18T08:36:29.804Z,87.46
2018-09-18T08:37:39.900Z,86.88
2018-09-18T08:38:49.733Z,87.36
2018-09-18T08:40:00.459Z,87.36
2018-09-18T08:41:11.360Z,87.36
2018-09-18T08:42:21.616Z,87.07
2018-09-18T08:43:31.711Z,86.92
2018-09-18T08:44:41.933Z,87.21
2018-09-18T08:45:51.912Z,87.21
2018-09-18T08:47:02.304Z,87.21
2018-09-18T08:48:12.179Z,87.4
2018-09-18T08:49:22.410Z,87.3
2018-09-18T08:50:32.332Z,87.64
2018-09-18T08:51:42.602Z,87.25
2018-09-18T08:52:53.118Z,87.45
2018-09-18T08:54:03.072Z,87.25
2018-09-18T08:55:12.947Z,87.25
2018-09-18T08:56:23.117Z,87.45
2018-09-18T08:57:33.277Z,87.39
2018-09-18T08:58:43.408Z,87.29
2018-09-18T08:59:53.242Z,87.29
2018-09-18T09:01:03.327Z,87.29
2018-09-18T09:02:13.042Z,87.29
2018-09-18T09:03:23.491Z,87.59
2018-09-18T09:04:33.332Z,87.49
2018-09-18T09:05:43.503Z,87.59
2018-09-18T09:06:53.814Z,87.73
2018-09-18T09:08:04.340Z,87.53
2018-09-18T09:09:15.238Z,87.53
2018-09-18T09:10:25.920Z,87.34
2018-09-18T09:11:36.352Z,87.53
2018-09-18T09:12:46.572Z,87.73
2018-09-18T09:13:56.765Z,87.15
2018-09-18T09:15:06.786Z,87.43
2018-09-18T09:16:17.116Z,87.53
2018-09-18T09:17:26.971Z,87.53
2018-09-18T09:18:37.373Z,87.63
2018-09-18T09:19:47.547Z,87.63
2018-09-18T09:20:57.949Z,87.34
2018-09-18T09:22:08.483Z,87.38
2018-09-18T09:23:18.824Z,87.57
2018-09-18T09:24:29.043Z,87.67
2018-09-18T09:25:39.183Z,87.57
2018-09-18T09:26:49.622Z,86.99
2018-09-18T09:28:00.232Z,86.99
2018-09-18T09:29:10.625Z,87.09
2018-09-18T09:30:20.833Z,87.19
2018-09-18T09:31:30.948Z,87.38
2018-09-18T09:32:41.093Z,87.04
2018-09-18T09:33:51.228Z,87.04
2018-09-18T09:35:01.323Z,87.13
2018-09-18T09:36:11.504Z,87.13
2018-09-18T09:37:21.900Z,86.94
2018-09-18T09:38:31.751Z,86.84
2018-09-18T09:39:41.977Z,87.04
2018-09-18T09:40:52.077Z,86.74
2018-09-18T09:42:02.230Z,87.04
2018-09-18T09:43:12.045Z,87.08
2018-09-18T09:44:21.917Z,87.08
2018-09-18T09:45:32.009Z,86.98
2018-09-18T09:46:42.122Z,86.88
2018-09-18T09:47:52.200Z,87.08
2018-09-18T09:49:02.287Z,86.98
2018-09-18T09:50:12.149Z,86.88
2018-09-18T09:51:22.530Z,86.98
2018-09-18T09:52:32.753Z,87.08
2018-09-18T09:53:42.836Z,87.08
2018-09-18T09:54:52.921Z,86.88
2018-09-18T09:56:03.008Z,87.12
2018-09-18T09:57:13.129Z,87.12
2018-09-18T09:58:23.316Z,87.02
2018-09-18T09:59:33.388Z,86.83
2018-09-18T10:00:43.480Z,87.12
2018-09-18T10:01:53.574Z,87.02
2018-09-18T10:03:04.253Z,87.22
2018-09-18T10:04:14.083Z,87.22
2018-09-18T10:05:24.216Z,87.22
2018-09-18T10:06:34.319Z,87.02
2018-09-18T10:07:44.480Z,86.93
2018-09-18T10:08:54.613Z,86.97
2018-09-18T10:10:06.162Z,86.73
2018-09-18T10:11:16.023Z,86.93
2018-09-18T10:12:26.122Z,87.26
2018-09-18T10:13:36.237Z,86.77
2018-09-18T10:14:46.413Z,86.97
2018-09-18T10:15:56.661Z,87.26
2018-09-18T10:17:06.875Z,87.26
2018-09-18T10:18:16.742Z,87.26
2018-09-18T10:19:27.186Z,87.16
2018-09-18T10:20:37.017Z,87.07
2018-09-18T10:21:47.116Z,87.07
2018-09-18T10:22:57.262Z,87.3
2018-09-18T10:24:07.395Z,87.21
2018-09-18T10:25:17.341Z,87.01
2018-09-18T10:26:27.873Z,87.21
2018-09-18T10:27:38.211Z,87.21
2018-09-18T10:28:48.392Z,87.21
2018-09-18T10:29:58.591Z,87.21
2018-09-18T10:31:08.759Z,87.11
2018-09-18T10:32:18.929Z,87.11
2018-09-18T10:33:28.760Z,87.21
2018-09-18T10:34:38.633Z,87.21
2018-09-18T10:35:48.542Z,87.01
2018-09-18T10:36:58.797Z,86.95
2018-09-18T10:38:09.047Z,87.34
2018-09-18T10:39:19.449Z,86.95
2018-09-18T10:40:29.761Z,86.95
2018-09-18T10:41:40.016Z,86.95
2018-09-18T10:42:50.669Z,87.34
2018-09-18T10:44:01.416Z,87.34
2018-09-18T10:45:11.285Z,87.15
2018-09-18T10:46:21.428Z,87.09
2018-09-18T10:47:31.434Z,87.09
2018-09-18T10:48:41.571Z,87.38
2018-09-18T10:49:51.755Z,87.19
2018-09-18T10:51:01.562Z,87.05
2018-09-18T10:52:11.448Z,87.24
2018-09-18T10:53:21.634Z,87.24
2018-09-18T10:54:31.717Z,87.38
2018-09-18T10:55:41.858Z,87.24
2018-09-18T10:56:51.995Z,87.34
2018-09-18T10:58:01.877Z,87.15
2018-09-18T10:59:11.962Z,87.05
2018-09-18T11:00:22.063Z,87.05
2018-09-18T11:01:32.270Z,87.24
2018-09-18T11:02:42.171Z,87.24
2018-09-18T11:03:52.191Z,86.95
2018-09-18T11:05:01.797Z,86.95
2018-09-18T11:06:11.987Z,87.15
2018-09-18T11:07:21.365Z,87.05
2018-09-18T11:08:31.711Z,86.85
2018-09-18T11:09:42.105Z,86.8
2018-09-18T11:10:52.779Z,86.8
2018-09-18T11:12:03.614Z,87.09
2018-09-18T11:13:13.569Z,86.9
2018-09-18T11:14:24.009Z,86.7
2018-09-18T11:15:34.452Z,86.51
2018-09-18T11:16:45.214Z,86.6
2018-09-18T11:17:55.625Z,86.6
2018-09-18T11:19:06.295Z,86.6
2018-09-18T11:20:16.378Z,86.41
2018-09-18T11:21:26.638Z,86.55
2018-09-18T11:22:36.945Z,86.6
2018-09-18T11:23:46.941Z,86.51
2018-09-18T11:24:57.321Z,86.55
2018-09-18T11:26:07.844Z,86.65
2018-09-18T11:27:17.502Z,86.55
2018-09-18T11:28:27.651Z,86.65
2018-09-18T11:29:37.388Z,86.41
2018-09-18T11:30:47.257Z,86.65
2018-09-18T11:31:57.398Z,86.74
2018-09-18T11:33:07.741Z,86.94
2018-09-18T11:34:17.661Z,86.74
2018-09-18T11:35:27.762Z,86.55
2018-09-18T11:36:37.847Z,86.74
2018-09-18T11:37:47.933Z,86.94
2018-09-18T11:38:58.121Z,86.65
2018-09-18T11:40:08.208Z,86.65
2018-09-18T11:41:18.292Z,86.59
2018-09-18T11:42:28.372Z,86.3
2018-09-18T11:43:38.466Z,86.16
2018-09-18T11:44:48.549Z,86.59
2018-09-18T11:45:59.305Z,86.4
2018-09-18T11:47:09.962Z,86.06
2018-09-18T11:48:19.842Z,86.06
2018-09-18T11:49:29.944Z,86.3
2018-09-18T11:50:39.818Z,86.4
2018-09-18T11:51:49.623Z,86.25
2018-09-18T11:52:59.902Z,86.35
2018-09-18T11:54:09.991Z,86.4
2018-09-18T11:55:20.208Z,86.16
2018-09-18T11:56:30.298Z,86.1
2018-09-18T11:57:40.146Z,86.1
2018-09-18T11:58:49.975Z,85.81
2018-09-18T12:00:00.056Z,85.81
2018-09-18T12:01:09.891Z,86.1
2018-09-18T12:02:19.988Z,86.1
2018-09-18T12:03:29.816Z,86.1
2018-09-18T12:04:40.164Z,86
2018-09-18T12:05:50.846Z,86
2018-09-18T12:07:00.962Z,85.77
2018-09-18T12:08:10.782Z,86
2018-09-18T12:09:20.908Z,86
2018-09-18T12:10:30.750Z,86.1
2018-09-18T12:11:40.868Z,86.1
2018-09-18T12:12:50.964Z,86.2
2018-09-18T12:14:01.059Z,86.2
2018-09-18T12:15:10.887Z,86.2
2018-09-18T12:16:20.968Z,86.63
2018-09-18T12:17:31.055Z,86.44
2018-09-18T12:18:41.153Z,86.49
2018-09-18T12:19:50.972Z,86.44
2018-09-18T12:21:01.067Z,86.24
2018-09-18T12:22:11.026Z,86.54
2018-09-18T12:23:21.200Z,86.05
2018-09-18T12:24:31.304Z,86.4
2018-09-18T12:25:41.390Z,85.91
2018-09-18T12:26:51.482Z,86
2018-09-18T12:28:03.552Z,86
2018-09-18T12:29:13.129Z,86
2018-09-18T12:30:22.952Z,85.81
2018-09-18T12:31:33.100Z,86.2
2018-09-18T12:32:43.206Z,86.1
2018-09-18T12:33:53.099Z,86.3
2018-09-18T12:35:03.254Z,86.2
2018-09-18T12:36:13.415Z,86.1
2018-09-18T12:37:23.232Z,86.24
2018-09-18T12:38:33.315Z,85.95
2018-09-18T12:39:43.403Z,86.24
2018-09-18T12:40:53.502Z,85.95
2018-09-18T12:42:03.994Z,86
2018-09-18T12:43:15.189Z,86.1
2018-09-18T12:44:25.032Z,86.49
2018-09-18T12:45:35.135Z,86.98
2018-09-18T12:46:45.299Z,86.59
2018-09-18T12:47:55.470Z,86.69
2018-09-18T12:49:09.115Z,86.69
2018-09-18T12:50:19.808Z,86.79
2018-09-18T12:51:30.866Z,86.79
2018-09-18T12:52:40.962Z,86.69
2018-09-18T12:53:51.358Z,86.65
2018-09-18T12:55:01.841Z,86.74
2018-09-18T12:56:12.096Z,86.94
2018-09-18T12:57:22.795Z,86.65
2018-09-18T12:58:33.900Z,86.74
2018-09-18T12:59:44.350Z,86.74
2018-09-18T13:00:55.079Z,86.74
2018-09-18T13:02:04.931Z,86.65
2018-09-18T13:03:14.860Z,86.84
2018-09-18T13:04:24.940Z,86.55
2018-09-18T13:05:35.071Z,86.65
2018-09-18T13:06:44.971Z,86.6
2018-09-18T13:07:55.504Z,86.7
2018-09-18T13:09:05.809Z,86.51
2018-09-18T13:10:15.947Z,86.6
2018-09-18T13:11:26.148Z,86.7
2018-09-18T13:12:36.389Z,86.6
2018-09-18T13:13:46.545Z,86.8
2018-09-18T13:14:56.884Z,86.8
2018-09-18T13:16:06.989Z,86.8
2018-09-18T13:17:17.257Z,86.6
2018-09-18T13:18:27.678Z,86.9
2018-09-18T13:19:37.778Z,86.6
2018-09-18T13:20:47.864Z,86.11
2018-09-18T13:21:58.035Z,86.16
2018-09-18T13:23:07.945Z,86.55
2018-09-18T13:24:18.048Z,86.9
2018-09-18T13:25:28.151Z,86.65
2018-09-18T13:26:38.257Z,86.7
2018-09-18T13:27:48.271Z,86.6
2018-09-18T13:28:58.697Z,86.51
2018-09-18T13:30:09.190Z,86.9
2018-09-18T13:31:19.352Z,86.51
2018-09-18T13:32:29.478Z,86.51
2018-09-18T13:33:39.203Z,86.6
2018-09-18T13:34:49.308Z,86.7
2018-09-18T13:35:59.378Z,86.51
2018-09-18T13:37:09.501Z,86.51
2018-09-18T13:38:19.628Z,86.51
2018-09-18T13:39:29.729Z,86.41
2018-09-18T13:40:39.961Z,86.7
2018-09-18T13:41:50.405Z,86.7
2018-09-18T13:43:00.524Z,86.31
2018-09-18T13:44:10.665Z,86.41
2018-09-18T13:45:20.752Z,86.6
2018-09-18T13:46:30.366Z,86.7
2018-09-18T13:47:40.515Z,86.51
2018-09-18T13:48:50.363Z,86.46
2018-09-18T13:50:00.451Z,86.8
2018-09-18T13:51:10.619Z,86.36
2018-09-18T13:52:20.775Z,86.95
2018-09-18T13:53:30.876Z,86.66
2018-09-18T13:54:41.002Z,86.85
2018-09-18T13:55:51.143Z,86.95
2018-09-18T13:57:01.261Z,86.56
2018-09-18T13:58:11.145Z,86.85
2018-09-18T13:59:21.368Z,86.85
2018-09-18T14:00:31.599Z,86.66
2018-09-18T14:01:42.474Z,86.66
2018-09-18T14:02:53.498Z,86.76
2018-09-18T14:04:03.765Z,86.76
2018-09-18T14:05:13.894Z,86.76
2018-09-18T14:06:23.745Z,87.15
2018-09-18T14:10:11.809Z,87.05
2018-09-18T14:11:21.377Z,87.11
2018-09-18T14:12:31.502Z,86.43
2018-09-18T14:13:41.335Z,87.01
2018-09-18T14:14:51.575Z,87.11
2018-09-18T14:16:02.502Z,86.62
2018-09-18T14:17:12.340Z,86.95
2018-09-18T14:18:22.450Z,87.15
2018-09-18T14:19:32.297Z,87.3
2018-09-18T14:20:42.429Z,87.3
2018-09-18T14:21:52.318Z,87.21
2018-09-18T14:23:02.511Z,87.21
2018-09-18T14:24:12.602Z,87.3
2018-09-18T14:25:22.735Z,87.11
2018-09-18T14:26:33.405Z,87.4
2018-09-18T14:27:43.665Z,87.4
2018-09-18T14:28:53.921Z,87.21
2018-09-18T14:30:06.237Z,87.3
2018-09-18T14:31:16.088Z,87.4
2018-09-18T14:32:26.441Z,87.3
2018-09-18T14:33:36.704Z,87.3
2018-09-18T14:34:46.987Z,87.5
2018-09-18T14:35:57.559Z,87.6
2018-09-18T14:37:07.693Z,87.11
2018-09-18T14:38:17.917Z,87.11
2018-09-18T14:39:27.964Z,87.26
2018-09-18T14:40:38.356Z,87.26
2018-09-18T14:41:48.203Z,87.07
2018-09-18T14:42:58.036Z,87.07
2018-09-18T14:44:07.854Z,87.16
2018-09-18T14:45:17.876Z,87.16
2018-09-18T14:46:28.234Z,87.07
2018-09-18T14:47:38.397Z,87.16
2018-09-18T14:48:48.685Z,87.07
2018-09-18T14:49:58.842Z,87.07
2018-09-18T14:51:11.277Z,87.07
2018-09-18T14:52:22.145Z,87.16
2018-09-18T14:53:31.986Z,86.93
2018-09-18T14:54:41.814Z,87.22
2018-09-18T14:55:51.886Z,87.41
2018-09-18T14:57:03.191Z,87.12
2018-09-18T14:58:13.026Z,87.41
2018-09-18T14:59:23.144Z,87.8
2018-09-18T15:00:33.265Z,87.7
2018-09-18T15:01:43.350Z,87.51
2018-09-18T15:02:53.446Z,87.51
2018-09-18T15:04:04.261Z,87.51
2018-09-18T15:05:14.384Z,87.22
2018-09-18T15:06:24.496Z,87.99
2018-09-18T15:07:34.584Z,87.7
2018-09-18T15:08:44.750Z,87.76
2018-09-18T15:09:54.967Z,87.85
2018-09-18T15:11:05.096Z,87.95
2018-09-18T15:12:15.203Z,87.46
2018-09-18T15:13:25.333Z,87.66
2018-09-18T15:14:35.525Z,87.76
2018-09-18T15:15:46.136Z,87.76
2018-09-18T15:16:56.020Z,87.56
2018-09-18T15:18:06.105Z,87.81
2018-09-18T15:19:15.968Z,87.62
2018-09-18T15:20:26.047Z,88.1
2018-09-18T15:21:36.307Z,88.1
2018-09-18T15:22:46.567Z,87.81
2018-09-18T15:23:56.658Z,87.91
2018-09-18T15:25:06.743Z,87.91
2018-09-18T15:26:16.879Z,88.1
2018-09-18T15:27:26.841Z,88.1
2018-09-18T15:28:36.931Z,87.42
2018-09-18T15:29:47.067Z,87.52
2018-09-18T15:30:57.178Z,88.26
2018-09-18T15:32:07.500Z,88.06
2018-09-18T15:33:17.912Z,88.06
2018-09-18T15:34:28.074Z,88.16
2018-09-18T15:35:38.179Z,88.35
2018-09-18T15:36:48.341Z,88.35
2018-09-18T15:37:58.472Z,87.87
2018-09-18T15:39:10.776Z,87.87
2018-09-18T15:40:20.611Z,88.31
2018-09-18T15:41:30.477Z,88.02
2018-09-18T15:42:40.574Z,87.96